createdAt,value
2022-11-26T00:00:50.958Z,112.68
2022-11-26T00:03:18.337Z,87.43
2022-11-26T00:05:48.528Z,88.50
2022-11-26T00:08:22.945Z,83.13
2022-11-26T00:10:52.221Z,85.03
2022-11-26T00:13:25.386Z,163.20
2022-11-26T00:15:52.344Z,127.57
2022-11-26T00:18:19.743Z,101.25
2022-11-26T00:20:48.811Z,170.77
2022-11-26T00:23:22.673Z,109.60
2022-11-26T00:25:52.808Z,96.77
2022-11-26T00:28:33.122Z,103.13
2022-11-26T00:31:02.287Z,115.88
2022-11-26T00:33:29.906Z,93.25
2022-11-26T00:36:02.783Z,115.55
2022-11-26T00:38:30.723Z,91.10
2022-11-26T00:40:58.013Z,102.40
2022-11-26T00:43:24.610Z,105.07
2022-11-26T00:45:51.281Z,100.50
2022-11-26T00:48:19.355Z,105.38
2022-11-26T00:50:51.623Z,96.40
2022-11-26T00:53:22.645Z,91.90
2022-11-26T00:55:50.645Z,82.05
2022-11-26T00:58:29.650Z,82.57
2022-11-26T01:00:58.421Z,78.93
2022-11-26T01:03:25.423Z,87.05
2022-11-26T01:05:55.081Z,78.10
2022-11-26T01:08:36.004Z,85.63
2022-11-26T01:11:04.770Z,77.00
2022-11-26T01:13:32.287Z,76.93
2022-11-26T01:16:01.172Z,85.40
2022-11-26T01:18:28.807Z,90.03
2022-11-26T01:20:55.424Z,88.82
2022-11-26T01:23:22.137Z,98.80
2022-11-26T01:25:48.779Z,88.78
2022-11-26T01:28:17.763Z,95.47
2022-11-26T01:30:45.190Z,91.17
2022-11-26T01:33:11.764Z,100.55
2022-11-26T01:35:38.370Z,94.97
2022-11-26T01:38:05.572Z,91.43
2022-11-26T01:41:12.926Z,93.15
2022-11-26T01:43:44.033Z,103.97
2022-11-26T01:46:18.579Z,87.15
2022-11-26T01:48:47.041Z,107.95
2022-11-26T01:51:18.670Z,103.78
2022-11-26T01:54:01.051Z,84.30
2022-11-26T01:56:43.594Z,79.18
2022-11-26T01:59:17.257Z,80.90
2022-11-26T02:01:44.075Z,83.95
2022-11-26T02:04:15.922Z,81.20
2022-11-26T02:06:44.989Z,86.05
2022-11-26T02:09:12.515Z,84.00
2022-11-26T02:11:39.477Z,76.85
2022-11-26T02:14:31.341Z,80.38
2022-11-26T02:17:05.899Z,87.78
2022-11-26T02:19:38.507Z,138.70
2022-11-26T02:22:38.103Z,129.20
2022-11-26T02:25:18.472Z,99.82
2022-11-26T02:28:13.723Z,87.82
2022-11-26T02:30:45.389Z,111.93
2022-11-26T02:33:21.624Z,171.93
2022-11-26T02:36:07.385Z,108.68
2022-11-26T02:38:36.920Z,117.15
2022-11-26T02:41:04.313Z,130.77
2022-11-26T02:43:32.165Z,119.38
2022-11-26T02:46:03.859Z,116.80
2022-11-26T02:48:38.747Z,137.80
2022-11-26T02:51:10.573Z,116.35
2022-11-26T02:53:40.020Z,94.57
2022-11-26T02:56:26.204Z,95.57
2022-11-26T02:58:54.347Z,95.65
2022-11-26T03:01:32.017Z,86.37
2022-11-26T03:04:08.219Z,102.40
2022-11-26T03:06:35.659Z,83.63
2022-11-26T03:09:02.834Z,80.00
2022-11-26T03:11:30.106Z,75.13
2022-11-26T03:13:58.131Z,78.07
2022-11-26T03:16:24.869Z,64.65
2022-11-26T03:18:51.716Z,68.80
2022-11-26T03:21:18.481Z,58.83
2022-11-26T03:23:45.267Z,58.78
2022-11-26T03:26:11.893Z,57.92
2022-11-26T03:28:38.780Z,55.78
2022-11-26T03:31:05.645Z,58.30
2022-11-26T03:33:32.306Z,55.25
2022-11-26T03:35:59.050Z,52.22
2022-11-26T03:38:25.922Z,54.58
2022-11-26T03:41:00.767Z,55.40
2022-11-26T03:43:27.820Z,57.35
2022-11-26T03:45:54.831Z,50.40
2022-11-26T03:48:22.028Z,55.83
2022-11-26T03:50:48.959Z,55.35
2022-11-26T03:53:15.670Z,63.50
2022-11-26T03:55:43.136Z,48.90
2022-11-26T03:58:09.833Z,53.08
2022-11-26T04:00:36.571Z,52.28
2022-11-26T04:03:03.409Z,51.30
2022-11-26T04:05:30.186Z,52.10
2022-11-26T04:07:56.831Z,49.08
2022-11-26T04:10:23.605Z,54.97
2022-11-26T04:12:50.318Z,64.18
2022-11-26T04:15:16.969Z,66.65
2022-11-26T04:17:43.778Z,71.38
2022-11-26T04:20:10.951Z,77.60
2022-11-26T04:22:38.092Z,70.53
2022-11-26T04:25:05.351Z,75.43
2022-11-26T04:27:33.834Z,70.00
2022-11-26T04:30:00.642Z,69.45
2022-11-26T04:32:27.252Z,73.00
2022-11-26T04:34:58.045Z,66.17
2022-11-26T04:37:24.700Z,57.37
2022-11-26T04:39:51.499Z,61.80
2022-11-26T04:42:18.303Z,55.38
2022-11-26T04:44:44.982Z,57.83
2022-11-26T04:47:12.214Z,64.10
2022-11-26T04:49:38.924Z,61.17
2022-11-26T04:52:05.714Z,68.18
2022-11-26T04:54:32.441Z,64.18
2022-11-26T04:56:59.300Z,59.25
2022-11-26T04:59:26.218Z,55.72
2022-11-26T05:01:52.859Z,63.30
2022-11-26T05:04:20.501Z,54.70
2022-11-26T05:06:47.220Z,60.10
2022-11-26T05:09:13.979Z,63.70
2022-11-26T05:11:46.007Z,61.65
2022-11-26T05:14:13.138Z,67.63
2022-11-26T05:16:40.042Z,67.75
2022-11-26T05:19:06.800Z,62.33
2022-11-26T05:21:33.606Z,68.47
2022-11-26T05:24:00.266Z,62.22
2022-11-26T05:26:27.031Z,63.58
2022-11-26T05:28:53.773Z,60.13
2022-11-26T05:31:20.483Z,66.68
2022-11-26T05:33:47.362Z,59.42
2022-11-26T05:36:14.137Z,68.07
2022-11-26T05:38:40.861Z,73.15
2022-11-26T05:41:07.801Z,77.22
2022-11-26T05:43:34.519Z,79.35
2022-11-26T05:46:06.220Z,79.45
2022-11-26T05:48:33.130Z,85.97
2022-11-26T05:51:01.105Z,78.97
2022-11-26T05:53:28.642Z,92.03
2022-11-26T05:55:55.400Z,111.57
2022-11-26T05:58:22.095Z,92.25
2022-11-26T06:00:48.733Z,84.05
2022-11-26T06:03:19.859Z,110.70
2022-11-26T06:05:47.334Z,101.25
2022-11-26T06:09:07.115Z,91.10
2022-11-26T06:11:34.781Z,100.50
2022-11-26T06:14:05.441Z,96.07
2022-11-26T06:16:33.731Z,181.43
2022-11-26T06:19:00.555Z,108.53
2022-11-26T06:21:29.843Z,96.38
2022-11-26T06:23:59.572Z,83.88
2022-11-26T06:26:27.056Z,92.47
2022-11-26T06:28:53.875Z,127.18
2022-11-26T06:31:20.851Z,87.15
2022-11-26T06:33:49.903Z,91.72
2022-11-26T06:36:16.519Z,131.88
2022-11-26T06:38:43.750Z,135.07
2022-11-26T06:41:10.726Z,106.90
2022-11-26T06:43:37.800Z,95.10
2022-11-26T06:46:07.871Z,127.20
2022-11-26T06:48:36.488Z,99.50
2022-11-26T06:51:15.567Z,97.60
2022-11-26T06:53:42.564Z,93.88
2022-11-26T06:56:18.548Z,102.55
2022-11-26T06:58:48.179Z,108.13
2022-11-26T07:01:17.930Z,113.72
2022-11-26T07:03:45.187Z,97.00
2022-11-26T07:06:19.908Z,87.18
2022-11-26T07:08:47.961Z,107.32
2022-11-26T07:11:14.992Z,91.90
2022-11-26T07:13:42.049Z,114.32
2022-11-26T07:16:08.961Z,80.00
2022-11-26T07:18:36.001Z,81.95
2022-11-26T07:21:11.475Z,80.50
2022-11-26T07:23:39.273Z,89.53
2022-11-26T07:26:07.071Z,91.88
2022-11-26T07:28:35.065Z,83.32
2022-11-26T07:31:04.430Z,77.80
2022-11-26T07:33:31.522Z,88.07
2022-11-26T07:36:02.754Z,82.40
2022-11-26T07:38:30.144Z,85.45
2022-11-26T07:41:04.647Z,81.30
2022-11-26T07:43:31.945Z,81.97
2022-11-26T07:46:02.897Z,80.72
2022-11-26T07:48:30.709Z,79.95
2022-11-26T07:50:58.719Z,70.57
2022-11-26T07:53:28.425Z,62.30
2022-11-26T07:55:55.420Z,69.63
2022-11-26T07:58:22.291Z,71.65
2022-11-26T08:00:54.314Z,91.03
2022-11-26T08:03:25.639Z,76.60
2022-11-26T08:05:55.239Z,125.03
2022-11-26T08:08:21.959Z,107.03
2022-11-26T08:10:51.411Z,96.85
2022-11-26T08:13:18.031Z,86.18
2022-11-26T08:15:44.746Z,91.75
2022-11-26T08:18:15.351Z,106.82
2022-11-26T08:20:42.065Z,115.43
2022-11-26T08:23:08.992Z,97.82
2022-11-26T08:25:39.000Z,119.10
2022-11-26T08:28:11.753Z,102.30
2022-11-26T08:30:38.574Z,94.05
2022-11-26T08:33:05.361Z,103.03
2022-11-26T08:35:59.053Z,155.80
2022-11-26T08:38:22.079Z,98.05
2022-11-26T08:40:48.806Z,97.15
2022-11-26T08:43:15.509Z,99.13
2022-11-26T08:45:51.493Z,98.93
2022-11-26T08:48:18.232Z,123.70
2022-11-26T08:50:44.880Z,125.40
2022-11-26T08:53:11.534Z,116.43
2022-11-26T08:55:59.198Z,125.60
2022-11-26T08:58:27.258Z,126.95
2022-11-26T09:00:54.483Z,122.85
2022-11-26T09:03:21.486Z,112.03
2022-11-26T09:05:54.136Z,123.63
2022-11-26T09:08:26.804Z,133.20
2022-11-26T09:10:55.275Z,116.32
2022-11-26T09:13:22.213Z,125.93
2022-11-26T09:15:51.647Z,103.45
2022-11-26T09:18:18.915Z,124.93
2022-11-26T09:20:45.652Z,136.10
2022-11-26T09:23:14.446Z,134.75
2022-11-26T09:25:41.145Z,120.95
2022-11-26T09:28:07.888Z,132.57
2022-11-26T09:30:34.648Z,131.30
2022-11-26T09:33:01.442Z,142.15
2022-11-26T09:35:28.283Z,164.00
2022-11-26T09:37:55.281Z,130.20
2022-11-26T09:40:27.338Z,116.88
2022-11-26T09:43:15.544Z,124.55
2022-11-26T09:45:52.755Z,118.20
2022-11-26T09:48:25.683Z,121.22
2022-11-26T09:50:59.562Z,145.32
2022-11-26T09:53:30.804Z,124.30
2022-11-26T09:56:02.016Z,135.73
2022-11-26T09:58:39.410Z,131.93
2022-11-26T10:01:07.333Z,135.75
2022-11-26T10:03:37.481Z,122.00
2022-11-26T10:06:07.608Z,130.68
2022-11-26T10:09:12.153Z,138.50
2022-11-26T10:12:26.106Z,155.05
2022-11-26T10:15:16.437Z,130.13
2022-11-26T10:18:13.612Z,143.52
2022-11-26T10:20:45.981Z,144.20
2022-11-26T10:23:12.814Z,137.32
2022-11-26T10:25:47.237Z,139.52
2022-11-26T10:28:26.737Z,132.18
2022-11-26T10:30:59.002Z,137.77
2022-11-26T10:33:43.241Z,144.77
2022-11-26T10:36:22.395Z,138.88
2022-11-26T10:38:53.896Z,128.20
2022-11-26T10:41:24.428Z,116.53
2022-11-26T10:43:51.132Z,121.75
2022-11-26T10:46:33.453Z,121.72
2022-11-26T10:49:23.546Z,116.97
2022-11-26T10:51:52.365Z,110.10
2022-11-26T10:54:25.797Z,111.03
2022-11-26T10:56:53.489Z,106.53
2022-11-26T10:59:29.101Z,109.20
2022-11-26T11:02:04.974Z,103.63
2022-11-26T11:04:44.111Z,109.28
2022-11-26T11:07:38.763Z,114.63
2022-11-26T11:12:47.993Z,120.45
2022-11-26T11:15:30.027Z,111.70
2022-11-26T11:18:01.506Z,109.93
2022-11-26T11:20:56.055Z,115.35
2022-11-26T11:24:00.229Z,102.78
2022-11-26T11:26:23.879Z,104.47
2022-11-26T11:28:55.577Z,115.35
2022-11-26T11:31:29.385Z,112.88
2022-11-26T11:34:20.041Z,112.97
2022-11-26T11:37:05.830Z,111.70
2022-11-26T11:39:39.190Z,101.88
2022-11-26T11:42:23.943Z,110.32
2022-11-26T11:44:52.327Z,120.85
2022-11-26T11:47:38.355Z,110.32
2022-11-26T11:50:32.457Z,109.45
2022-11-26T11:53:13.545Z,114.90
2022-11-26T11:56:27.181Z,118.53
2022-11-26T11:59:17.238Z,120.20
2022-11-26T12:02:10.845Z,118.20
2022-11-26T12:04:43.466Z,124.03
2022-11-26T12:07:34.734Z,122.10
2022-11-26T12:10:22.321Z,124.40
2022-11-26T12:12:56.961Z,133.60
2022-11-26T12:15:35.830Z,131.45
2022-11-26T12:18:42.614Z,129.73
2022-11-26T12:21:15.010Z,115.85
2022-11-26T12:24:17.073Z,116.78
2022-11-26T12:26:53.401Z,119.00
2022-11-26T12:29:37.315Z,102.57
2022-11-26T12:32:18.638Z,129.38
2022-11-26T12:35:00.777Z,114.18
2022-11-26T12:37:42.509Z,108.53
2022-11-26T12:40:26.304Z,109.95
2022-11-26T12:43:02.561Z,103.30
2022-11-26T12:46:08.931Z,100.95
2022-11-26T12:49:03.715Z,106.43
2022-11-26T12:51:43.929Z,113.22
2022-11-26T12:54:39.125Z,111.50
2022-11-26T12:57:21.091Z,111.65
2022-11-26T13:00:13.922Z,109.13
2022-11-26T13:02:44.502Z,110.90
2022-11-26T13:05:47.345Z,122.70
2022-11-26T13:08:27.304Z,141.23
2022-11-26T13:11:12.215Z,100.70
2022-11-26T13:13:54.107Z,115.50
2022-11-26T13:16:38.293Z,106.72
2022-11-26T13:19:27.795Z,103.65
2022-11-26T13:22:21.388Z,101.93
2022-11-26T13:25:12.833Z,110.95
2022-11-26T13:28:11.924Z,89.80
2022-11-26T13:30:45.311Z,102.70
2022-11-26T13:33:39.886Z,117.07
2022-11-26T13:36:35.976Z,84.68
2022-11-26T13:39:21.217Z,104.68
2022-11-26T13:42:16.223Z,112.78
2022-11-26T13:45:03.361Z,81.55
2022-11-26T13:47:42.290Z,106.07
2022-11-26T13:54:08.299Z,95.40
2022-11-26T13:56:44.291Z,95.88
2022-11-26T13:59:22.717Z,97.13
2022-11-26T14:02:05.537Z,91.20
2022-11-26T14:04:48.650Z,88.32
2022-11-26T14:07:15.760Z,100.13
2022-11-26T14:09:52.101Z,79.22
2022-11-26T14:12:44.451Z,88.97
2022-11-26T14:15:42.306Z,85.63
2022-11-26T14:18:49.753Z,85.35
2022-11-26T14:21:25.477Z,87.43
2022-11-26T14:23:59.477Z,108.65
2022-11-26T14:26:39.598Z,90.85
2022-11-26T14:29:15.495Z,92.05
2022-11-26T14:31:51.349Z,91.93
2022-11-26T14:34:53.357Z,82.85
2022-11-26T14:37:25.678Z,103.40
2022-11-26T14:40:04.624Z,84.55
2022-11-26T14:42:31.370Z,92.55
2022-11-26T14:45:18.473Z,86.60
2022-11-26T14:47:49.337Z,70.15
2022-11-26T14:50:20.096Z,71.47
2022-11-26T14:52:50.211Z,66.40
2022-11-26T14:55:24.171Z,62.70
2022-11-26T14:57:57.635Z,73.63
2022-11-26T15:00:29.655Z,71.22
2022-11-26T15:02:57.000Z,65.38
2022-11-26T15:05:29.869Z,69.07
2022-11-26T15:08:02.965Z,68.27
2022-11-26T15:10:47.311Z,76.35
2022-11-26T15:13:21.185Z,74.40
2022-11-26T15:15:57.272Z,60.47
2022-11-26T15:18:33.301Z,57.42
2022-11-26T15:21:05.179Z,53.25
2022-11-26T15:23:37.084Z,59.88
2022-11-26T15:26:04.632Z,70.60
2022-11-26T15:28:38.348Z,61.10
2022-11-26T15:33:34.216Z,46.22
2022-11-26T15:36:02.342Z,50.47
2022-11-26T15:38:37.798Z,53.33
2022-11-26T15:41:20.084Z,44.63
2022-11-26T15:43:50.777Z,40.88
2022-11-26T15:46:25.223Z,33.25
2022-11-26T15:48:59.364Z,37.20
2022-11-26T15:51:42.782Z,33.72
2022-11-26T15:54:22.087Z,38.55
2022-11-26T15:56:52.827Z,36.75
2022-11-26T15:59:20.868Z,40.20
2022-11-26T16:01:48.326Z,40.22
2022-11-26T16:04:33.512Z,38.97
2022-11-26T16:07:14.650Z,31.92
2022-11-26T16:09:42.622Z,32.65
2022-11-26T16:12:33.679Z,34.33
2022-11-26T16:15:23.955Z,35.50
2022-11-26T16:17:51.449Z,39.33
2022-11-26T16:20:25.409Z,36.90
2022-11-26T16:22:57.169Z,34.90
2022-11-26T16:25:28.423Z,28.02
2022-11-26T16:28:04.257Z,30.20
2022-11-26T16:30:31.158Z,36.03
2022-11-26T16:32:58.525Z,33.05
2022-11-26T16:35:44.659Z,45.42
2022-11-26T16:38:22.726Z,44.90
2022-11-26T16:40:50.196Z,54.60
2022-11-26T16:43:16.999Z,60.22
2022-11-26T16:45:44.296Z,50.05
2022-11-26T16:48:27.224Z,57.28
2022-11-26T16:50:55.864Z,55.45
2022-11-26T16:53:23.747Z,50.67
2022-11-26T16:55:52.527Z,45.97
2022-11-26T16:58:29.928Z,52.80
2022-11-26T17:00:58.136Z,50.05
2022-11-26T17:03:27.764Z,42.53
2022-11-26T17:05:58.835Z,40.75
2022-11-26T17:08:25.787Z,35.15
2022-11-26T17:10:52.690Z,42.50
2022-11-26T17:13:20.758Z,38.72
2022-11-26T17:15:48.626Z,35.33
2022-11-26T17:18:24.209Z,34.92
2022-11-26T17:20:53.442Z,35.53
2022-11-26T17:23:20.718Z,36.08
2022-11-26T17:25:52.140Z,34.75
2022-11-26T17:28:21.267Z,32.22
2022-11-26T17:30:48.170Z,37.05
2022-11-26T17:33:16.568Z,39.58
2022-11-26T17:35:43.753Z,42.77
2022-11-26T17:38:34.530Z,41.60
2022-11-26T17:43:52.117Z,39.55
2022-11-26T17:46:21.541Z,41.63
2022-11-26T17:48:49.978Z,40.42
2022-11-26T17:51:18.303Z,31.20
2022-11-26T17:53:45.308Z,37.22
2022-11-26T17:56:20.435Z,39.47
2022-11-26T17:58:47.541Z,32.15
2022-11-26T18:01:15.491Z,32.10
2022-11-26T18:03:43.561Z,38.17
2022-11-26T18:06:19.039Z,40.85
2022-11-26T18:08:46.251Z,43.42
2022-11-26T18:11:14.766Z,44.27
2022-11-26T18:13:41.434Z,46.67
2022-11-26T18:16:08.359Z,44.20
2022-11-26T18:18:35.131Z,37.38
2022-11-26T18:21:01.765Z,42.28
2022-11-26T18:23:28.620Z,44.53
2022-11-26T18:25:55.435Z,41.70
2022-11-26T18:28:22.012Z,43.27
2022-11-26T18:30:50.095Z,33.30
2022-11-26T18:33:17.093Z,37.00
2022-11-26T18:35:44.342Z,33.80
2022-11-26T18:38:11.786Z,33.47
2022-11-26T18:40:38.734Z,38.00
2022-11-26T18:43:05.885Z,31.70
2022-11-26T18:45:32.877Z,32.42
2022-11-26T18:48:00.765Z,37.37
2022-11-26T18:50:27.771Z,41.87
2022-11-26T18:52:58.452Z,36.40
2022-11-26T18:55:25.261Z,38.30
2022-11-26T18:57:51.995Z,36.97
2022-11-26T19:00:19.137Z,40.03
2022-11-26T19:02:45.934Z,37.87
2022-11-26T19:05:12.807Z,37.70
2022-11-26T19:07:39.749Z,41.33
2022-11-26T19:10:07.420Z,45.77
2022-11-26T19:12:34.430Z,39.23
2022-11-26T19:15:01.077Z,36.53
2022-11-26T19:17:27.811Z,37.33
2022-11-26T19:19:54.644Z,37.40
2022-11-26T19:22:21.599Z,35.07
2022-11-26T19:24:48.530Z,37.33
2022-11-26T19:27:15.323Z,41.03
2022-11-26T19:29:42.291Z,38.50
2022-11-26T19:32:09.362Z,34.47
2022-11-26T19:35:04.166Z,35.07
2022-11-26T19:37:23.768Z,34.73
2022-11-26T19:39:50.596Z,33.22
2022-11-26T19:42:17.494Z,35.87
2022-11-26T19:44:44.188Z,30.67
2022-11-26T19:47:10.902Z,36.73
2022-11-26T19:49:38.046Z,33.17
2022-11-26T19:52:05.110Z,32.60
2022-11-26T19:54:31.840Z,27.03
2022-11-26T19:56:58.668Z,33.23
2022-11-26T19:59:25.298Z,37.53
2022-11-26T20:01:52.371Z,32.80
2022-11-26T20:04:19.723Z,41.10
2022-11-26T20:06:46.458Z,32.63
2022-11-26T20:09:14.758Z,36.50
2022-11-26T20:11:42.154Z,34.87
2022-11-26T20:14:11.874Z,38.00
2022-11-26T20:16:41.180Z,38.30
2022-11-26T20:19:08.573Z,45.20
2022-11-26T20:21:36.589Z,37.47
2022-11-26T20:24:11.072Z,40.80
2022-11-26T20:26:41.609Z,38.90
2022-11-26T20:29:12.331Z,38.73
2022-11-26T20:31:50.788Z,33.63
2022-11-26T20:34:21.138Z,36.53
2022-11-26T20:36:52.693Z,39.17
2022-11-26T20:40:17.720Z,40.63
2022-11-26T20:43:11.675Z,34.00
2022-11-26T20:45:48.874Z,38.70
2022-11-26T20:48:15.805Z,40.17
2022-11-26T20:50:43.088Z,45.77
2022-11-26T20:53:09.807Z,39.23
2022-11-26T20:55:36.665Z,40.77
2022-11-26T20:58:03.728Z,40.57
2022-11-26T21:00:30.623Z,34.17
2022-11-26T21:02:57.340Z,35.63
2022-11-26T21:05:24.206Z,36.33
2022-11-26T21:07:51.428Z,39.03
2022-11-26T21:10:18.451Z,39.10
2022-11-26T21:12:45.303Z,34.10
2022-11-26T21:15:12.094Z,32.37
2022-11-26T21:17:39.336Z,35.53
2022-11-26T21:20:07.311Z,33.00
2022-11-26T21:22:34.360Z,33.50
2022-11-26T21:25:01.112Z,38.30
2022-11-26T21:27:27.891Z,34.07
2022-11-26T21:29:54.829Z,35.33
2022-11-26T21:32:30.854Z,39.43
2022-11-26T21:35:00.526Z,31.23
2022-11-26T21:37:28.103Z,38.10
2022-11-26T21:42:41.755Z,49.97
2022-11-26T21:45:09.208Z,47.30
2022-11-26T21:47:36.761Z,39.07
2022-11-26T21:50:05.209Z,44.20
2022-11-26T21:52:32.206Z,42.07
2022-11-26T21:55:03.371Z,38.40
2022-11-26T21:57:32.270Z,35.50
2022-11-26T21:59:59.043Z,45.43
2022-11-26T22:02:25.838Z,55.23
2022-11-26T22:04:52.879Z,52.20
2022-11-26T22:07:19.938Z,48.63
2022-11-26T22:09:46.887Z,49.53
2022-11-26T22:12:13.722Z,56.10
2022-11-26T22:14:40.523Z,51.13
2022-11-26T22:17:07.236Z,52.17
2022-11-26T22:19:34.033Z,53.03
2022-11-26T22:22:00.889Z,54.57
2022-11-26T22:24:27.590Z,48.00
2022-11-26T22:26:54.771Z,50.87
2022-11-26T22:29:21.720Z,53.03
2022-11-26T22:31:48.607Z,44.37
2022-11-26T22:34:17.757Z,49.03
2022-11-26T22:36:45.964Z,42.40
2022-11-26T22:39:17.783Z,51.17
2022-11-26T22:41:47.000Z,46.07
2022-11-26T22:44:14.917Z,44.30
2022-11-26T22:46:41.822Z,45.93
2022-11-26T22:49:13.037Z,39.77
2022-11-26T22:51:40.364Z,42.97
2022-11-26T22:54:08.686Z,48.60
2022-11-26T22:56:38.119Z,41.83
2022-11-26T22:59:06.550Z,43.33
2022-11-26T23:01:35.683Z,43.43
2022-11-26T23:04:05.303Z,40.83
2022-11-26T23:06:33.840Z,39.77
2022-11-26T23:09:00.768Z,41.07
2022-11-26T23:11:33.768Z,39.83
2022-11-26T23:14:02.300Z,48.05
2022-11-26T23:16:29.409Z,41.87
2022-11-26T23:18:57.454Z,43.73
2022-11-26T23:21:33.304Z,43.77
2022-11-26T23:24:00.640Z,42.27
2022-11-26T23:26:31.679Z,42.90
2022-11-26T23:29:00.530Z,40.00
2022-11-26T23:31:30.840Z,43.27
2022-11-26T23:33:58.027Z,41.93
2022-11-26T23:36:26.093Z,48.27
2022-11-26T23:38:53.014Z,48.27
2022-11-26T23:41:19.791Z,44.90
2022-11-26T23:43:46.736Z,41.30
2022-11-26T23:46:16.363Z,40.80
2022-11-26T23:48:43.754Z,49.10
2022-11-26T23:51:13.259Z,42.23
2022-11-26T23:53:42.567Z,44.47
2022-11-26T23:56:13.805Z,42.93
2022-11-26T23:58:40.604Z,41.43
